Time;durP1;ratioP1;P1;durP2;ratioP2;P2;SDS_P1;SDS_P2;PMS_P1;PMS_P2;Temp;Humidity;BMP_temperature;BMP_pressure;BME280_temperature;BME280_humidity;BME280_pressure;Samples;Min_cycle;Max_cycle;Signal;HPM_P1;HPM_P2
2021/09/11 00:01:06;;;;;;;4.35;1.90;;;21.30;67.60;;;;;;5035291;28;20075;-64
2021/09/11 00:03:33;;;;;;;3.25;1.77;;;21.30;67.60;;;;;;5035115;28;20014;-64
2021/09/11 00:05:58;;;;;;;3.75;2.00;;;21.30;67.60;;;;;;5035033;28;20456;-63
2021/09/11 00:08:24;;;;;;;3.95;1.98;;;21.30;67.60;;;;;;5035137;28;20022;-63
2021/09/11 00:10:49;;;;;;;4.10;2.03;;;21.30;67.60;;;;;;5034722;28;20045;-63
2021/09/11 00:13:15;;;;;;;4.80;2.03;;;21.30;67.60;;;;;;5034765;28;20064;-64
2021/09/11 00:15:40;;;;;;;4.43;2.30;;;21.30;67.60;;;;;;5034991;28;20026;-64
2021/09/11 00:18:06;;;;;;;4.15;1.88;;;21.30;67.60;;;;;;5034674;28;20194;-63
2021/09/11 00:20:31;;;;;;;4.57;2.35;;;21.30;67.60;;;;;;5034676;28;20037;-63
2021/09/11 00:22:59;;;;;;;5.03;2.33;;;21.20;67.70;;;;;;5034611;28;20100;-64
2021/09/11 00:25:25;;;;;;;4.90;1.88;;;21.30;67.70;;;;;;5049849;28;20393;-63
2021/09/11 00:27:50;;;;;;;5.10;2.03;;;21.30;67.60;;;;;;5034476;28;20025;-63
2021/09/11 00:30:16;;;;;;;3.80;2.20;;;21.30;67.70;;;;;;5034400;28;20397;-63
2021/09/11 00:32:43;;;;;;;3.78;2.00;;;21.30;67.70;;;;;;5034630;28;20021;-63
2021/09/11 00:35:14;;;;;;;3.75;1.90;;;21.30;67.60;;;;;;5034577;28;20156;-63
2021/09/11 00:37:40;;;;;;;4.15;2.30;;;21.20;67.70;;;;;;5034145;28;20100;-64
2021/09/11 00:40:07;;;;;;;5.85;2.50;;;21.30;67.70;;;;;;5034313;28;20051;-63
2021/09/11 00:42:32;;;;;;;4.05;2.13;;;21.20;67.70;;;;;;5034201;28;20034;-63
2021/09/11 00:44:58;;;;;;;4.35;2.10;;;21.30;67.70;;;;;;5033593;28;20117;-63
2021/09/11 00:47:23;;;;;;;3.53;2.00;;;21.20;67.70;;;;;;5034116;28;20033;-63
2021/09/11 00:49:49;;;;;;;4.07;2.10;;;21.20;67.70;;;;;;5034216;28;20033;-63
2021/09/11 00:52:15;;;;;;;4.57;2.03;;;21.20;67.70;;;;;;5034080;28;20040;-63
2021/09/11 00:54:41;;;;;;;3.20;1.80;;;21.20;67.80;;;;;;5033966;28;20109;-63
2021/09/11 00:57:07;;;;;;;4.65;2.20;;;21.20;67.70;;;;;;5034185;28;20108;-63
2021/09/11 00:59:33;;;;;;;3.97;2.00;;;21.20;67.70;;;;;;5033875;28;20116;-63
2021/09/11 01:01:58;;;;;;;5.38;2.05;;;21.20;67.70;;;;;;5033903;28;20537;-64
2021/09/11 01:04:27;;;;;;;4.45;2.05;;;21.20;67.70;;;;;;5033870;28;20386;-62
2021/09/11 01:06:53;;;;;;;2.72;1.60;;;21.20;67.70;;;;;;5033895;28;20037;-63
2021/09/11 01:09:19;;;;;;;4.00;1.98;;;21.20;67.70;;;;;;5033699;28;20389;-64
2021/09/11 01:11:44;;;;;;;3.80;2.20;;;21.20;67.70;;;;;;5033521;28;20457;-63
2021/09/11 01:14:10;;;;;;;3.92;2.15;;;21.20;67.80;;;;;;5033906;28;20032;-62
2021/09/11 01:16:35;;;;;;;3.72;2.05;;;21.20;67.80;;;;;;5033706;28;20026;-64
2021/09/11 01:19:01;;;;;;;3.75;2.05;;;21.20;67.80;;;;;;5033850;28;20021;-64
2021/09/11 01:21:26;;;;;;;3.80;2.08;;;21.20;67.80;;;;;;5033460;28;20477;-64
2021/09/11 01:23:52;;;;;;;3.15;1.85;;;21.20;67.80;;;;;;5033530;28;20025;-64
2021/09/11 01:26:17;;;;;;;4.10;2.13;;;21.20;67.80;;;;;;5033374;28;20108;-64
2021/09/11 01:28:43;;;;;;;3.60;1.80;;;21.20;67.80;;;;;;5033376;28;20469;-64
2021/09/11 01:31:08;;;;;;;3.55;1.83;;;21.20;67.80;;;;;;5033285;28;20033;-64
2021/09/11 01:33:34;;;;;;;4.55;2.20;;;21.20;67.80;;;;;;5033283;28;20088;-64
2021/09/11 01:35:59;;;;;;;4.07;2.08;;;21.10;67.80;;;;;;5033191;28;20025;-64
2021/09/11 01:38:25;;;;;;;3.50;1.80;;;21.20;67.80;;;;;;5033181;28;20137;-64
2021/09/11 01:40:50;;;;;;;3.90;1.85;;;21.20;67.80;;;;;;5033095;28;20092;-64
2021/09/11 01:43:29;;;;;;;3.60;2.13;;;21.20;67.90;;;;;;5033234;28;20147;-64
2021/09/11 01:45:55;;;;;;;4.63;2.35;;;21.10;67.90;;;;;;5033211;28;20500;-64
2021/09/11 01:48:20;;;;;;;5.15;2.17;;;21.10;67.90;;;;;;5033147;28;20055;-64
2021/09/11 01:50:46;;;;;;;4.05;2.13;;;21.10;67.90;;;;;;5033003;28;20064;-64
2021/09/11 01:53:11;;;;;;;3.28;1.75;;;21.20;67.90;;;;;;5032978;28;20052;-64
2021/09/11 01:55:37;;;;;;;3.72;2.10;;;21.20;67.90;;;;;;5033237;28;20115;-64
2021/09/11 01:58:02;;;;;;;4.30;2.08;;;21.10;67.90;;;;;;5032165;28;20021;-64
2021/09/11 02:00:28;;;;;;;3.65;2.05;;;21.10;67.90;;;;;;5032951;28;20048;-64
2021/09/11 02:02:53;;;;;;;4.65;2.40;;;21.10;68.00;;;;;;5032843;28;20139;-64
2021/09/11 02:05:19;;;;;;;3.17;1.63;;;21.10;67.90;;;;;;5032977;28;20041;-64
2021/09/11 02:07:45;;;;;;;4.53;2.40;;;21.10;67.90;;;;;;5032786;28;20029;-65
2021/09/11 02:10:12;;;;;;;4.78;2.63;;;21.10;67.90;;;;;;5032987;28;20025;-64
2021/09/11 02:12:37;;;;;;;3.28;1.88;;;21.10;67.90;;;;;;5032690;28;20030;-64
2021/09/11 02:15:04;;;;;;;3.92;2.10;;;21.10;67.90;;;;;;5032805;28;20027;-64
2021/09/11 02:17:30;;;;;;;4.95;2.45;;;21.10;67.90;;;;;;5032707;28;20043;-64
2021/09/11 02:19:55;;;;;;;4.00;2.05;;;21.10;67.90;;;;;;5032741;28;20524;-64
2021/09/11 02:22:21;;;;;;;5.15;2.40;;;21.10;68.00;;;;;;5032620;28;20022;-64
2021/09/11 02:24:46;;;;;;;4.15;2.30;;;21.10;68.10;;;;;;5032755;28;20388;-64
2021/09/11 02:27:12;;;;;;;4.25;2.10;;;21.10;68.10;;;;;;5032695;28;20018;-64
2021/09/11 02:29:37;;;;;;;4.88;2.42;;;21.10;68.10;;;;;;5047943;28;20048;-64
2021/09/11 02:32:04;;;;;;;4.00;2.03;;;21.10;68.10;;;;;;5032683;28;20057;-64
2021/09/11 02:34:30;;;;;;;4.63;2.30;;;21.10;68.10;;;;;;5032526;28;20116;-64
2021/09/11 02:36:56;;;;;;;4.95;2.45;;;21.10;68.10;;;;;;5032510;28;20359;-64
2021/09/11 02:39:22;;;;;;;4.18;2.30;;;21.10;68.10;;;;;;5032472;28;20052;-63
2021/09/11 02:41:47;;;;;;;4.90;2.75;;;21.10;68.10;;;;;;5032493;28;20034;-64
2021/09/11 02:44:13;;;;;;;5.03;2.47;;;21.10;68.10;;;;;;5032542;28;20026;-64
2021/09/11 02:46:38;;;;;;;4.97;2.75;;;21.10;68.20;;;;;;5032412;28;20048;-64
2021/09/11 02:49:04;;;;;;;6.13;2.85;;;21.10;68.20;;;;;;5032534;28;20032;-64
2021/09/11 02:51:30;;;;;;;5.13;2.92;;;21.10;68.20;;;;;;5032379;28;20116;-64
2021/09/11 02:53:56;;;;;;;6.35;3.28;;;21.10;68.30;;;;;;5032453;28;20037;-64
2021/09/11 02:56:21;;;;;;;5.15;2.72;;;21.10;68.20;;;;;;5032392;28;20041;-64
2021/09/11 02:58:47;;;;;;;5.57;2.90;;;21.10;68.20;;;;;;5032477;28;20101;-64
2021/09/11 03:01:13;;;;;;;6.60;3.65;;;21.10;68.10;;;;;;5032390;28;20473;-63
2021/09/11 03:03:39;;;;;;;6.00;3.42;;;21.10;68.10;;;;;;5032347;28;20100;-63
2021/09/11 03:06:04;;;;;;;5.80;3.08;;;21.10;68.10;;;;;;5032314;28;20053;-63
2021/09/11 03:08:30;;;;;;;5.97;3.38;;;21.10;68.10;;;;;;5033968;28;20437;-63
2021/09/11 03:10:56;;;;;;;6.00;3.20;;;21.10;68.10;;;;;;5035993;28;20088;-63
2021/09/11 03:13:22;;;;;;;6.10;3.40;;;21.10;68.10;;;;;;5051317;28;20024;-63
2021/09/11 03:15:49;;;;;;;5.72;3.20;;;21.10;68.10;;;;;;5036036;28;20026;-63
2021/09/11 03:18:15;;;;;;;4.78;2.75;;;21.00;68.20;;;;;;5036143;28;20029;-63
2021/09/11 03:20:41;;;;;;;7.03;3.53;;;21.10;68.20;;;;;;5035749;28;20091;-64
2021/09/11 03:23:06;;;;;;;6.60;3.10;;;21.10;68.10;;;;;;5035755;28;20053;-63
2021/09/11 03:25:32;;;;;;;5.55;3.30;;;21.10;68.10;;;;;;5036003;28;20021;-64
2021/09/11 03:27:58;;;;;;;5.35;2.97;;;21.10;68.10;;;;;;5035707;28;20021;-63
2021/09/11 03:30:24;;;;;;;6.32;3.33;;;21.10;68.10;;;;;;5035543;28;20033;-63
2021/09/11 03:32:50;;;;;;;6.55;3.65;;;21.10;68.00;;;;;;5035612;28;20377;-63
2021/09/11 03:35:16;;;;;;;7.43;3.80;;;21.10;68.10;;;;;;5035529;28;20363;-63
2021/09/11 03:37:41;;;;;;;5.32;3.13;;;21.10;68.00;;;;;;5035345;28;20041;-63
2021/09/11 03:40:07;;;;;;;7.45;3.78;;;21.10;68.10;;;;;;5050882;28;20025;-64
2021/09/11 03:42:33;;;;;;;7.63;4.00;;;21.10;68.10;;;;;;5035419;28;20021;-63
2021/09/11 03:44:58;;;;;;;6.70;3.65;;;21.10;68.20;;;;;;5035461;28;20025;-64
2021/09/11 03:47:24;;;;;;;6.10;3.50;;;21.10;68.10;;;;;;5035376;28;20491;-63
2021/09/11 03:49:49;;;;;;;6.65;3.63;;;21.10;68.20;;;;;;5035183;28;20022;-63
2021/09/11 03:52:15;;;;;;;5.90;3.30;;;21.00;68.20;;;;;;5035234;28;20041;-63
2021/09/11 03:54:40;;;;;;;7.13;3.35;;;21.10;68.20;;;;;;5035129;28;20108;-63
2021/09/11 03:57:06;;;;;;;6.88;3.33;;;21.10;68.20;;;;;;5035183;28;20029;-63
2021/09/11 03:59:32;;;;;;;6.10;3.50;;;21.10;68.10;;;;;;5035068;28;20025;-64
2021/09/11 04:01:57;;;;;;;5.80;3.08;;;21.10;68.10;;;;;;5035097;28;20026;-64
2021/09/11 04:04:23;;;;;;;5.90;3.65;;;21.10;68.10;;;;;;5034079;28;20448;-64
2021/09/11 04:06:48;;;;;;;6.30;3.33;;;21.10;68.10;;;;;;5034935;28;20029;-64
2021/09/11 04:09:14;;;;;;;6.00;3.42;;;21.10;68.10;;;;;;5034985;28;20064;-64
2021/09/11 04:11:39;;;;;;;5.97;3.40;;;21.00;68.20;;;;;;5034863;28;20041;-64
2021/09/11 04:14:05;;;;;;;6.07;3.45;;;21.10;68.20;;;;;;5034906;28;20104;-64
2021/09/11 04:16:30;;;;;;;5.80;3.33;;;21.10;68.10;;;;;;5050107;28;20030;-63
2021/09/11 04:18:56;;;;;;;6.20;3.50;;;21.10;68.10;;;;;;5033530;28;20032;-64
2021/09/11 04:21:21;;;;;;;6.63;3.45;;;21.10;68.10;;;;;;5033850;28;20041;-63
2021/09/11 04:23:47;;;;;;;6.25;3.30;;;21.00;68.30;;;;;;5034665;28;20470;-64
2021/09/11 04:26:12;;;;;;;6.40;3.65;;;21.00;68.10;;;;;;5034918;28;20068;-64
2021/09/11 04:28:38;;;;;;;9.27;3.70;;;21.00;68.20;;;;;;5034599;28;20065;-63
2021/09/11 04:31:03;;;;;;;5.82;3.63;;;21.10;68.20;;;;;;5034459;28;20485;-63
2021/09/11 04:33:29;;;;;;;6.45;3.78;;;21.00;68.20;;;;;;5034506;28;20056;-63
2021/09/11 04:35:55;;;;;;;6.50;3.50;;;21.10;68.20;;;;;;5034457;28;20451;-63
2021/09/11 04:38:21;;;;;;;5.88;3.40;;;21.00;68.10;;;;;;5034210;28;20052;-63
2021/09/11 04:40:46;;;;;;;6.80;3.95;;;21.00;68.30;;;;;;5049762;28;20022;-63
2021/09/11 04:43:12;;;;;;;6.55;3.75;;;21.00;68.20;;;;;;5034583;28;20079;-63
2021/09/11 04:45:38;;;;;;;6.70;4.05;;;21.00;68.40;;;;;;5034272;28;20026;-63
2021/09/11 04:48:03;;;;;;;6.47;3.63;;;21.00;68.30;;;;;;5033055;28;20021;-63
2021/09/11 04:50:29;;;;;;;7.28;4.00;;;21.00;68.40;;;;;;5033973;28;20103;-63
2021/09/11 04:52:55;;;;;;;6.40;3.80;;;21.00;68.40;;;;;;5034300;28;20084;-63
2021/09/11 04:55:21;;;;;;;6.78;4.18;;;21.00;68.40;;;;;;5034167;28;20036;-63
2021/09/11 04:57:47;;;;;;;6.55;3.78;;;21.00;68.40;;;;;;5034033;28;20017;-63
2021/09/11 05:00:14;;;;;;;6.28;3.88;;;21.00;68.40;;;;;;5034002;28;20389;-63
2021/09/11 05:02:39;;;;;;;6.18;3.72;;;21.00;68.50;;;;;;5033969;28;20045;-63
2021/09/11 05:05:06;;;;;;;6.20;3.85;;;21.00;68.50;;;;;;5033840;28;20025;-63
2021/09/11 05:07:31;;;;;;;6.28;3.72;;;21.00;68.50;;;;;;5033752;28;20122;-63
2021/09/11 05:09:56;;;;;;;6.93;3.83;;;21.00;68.50;;;;;;5033722;28;20053;-64
2021/09/11 05:12:22;;;;;;;6.22;3.75;;;21.00;68.40;;;;;;5034089;28;20026;-64
2021/09/11 05:14:47;;;;;;;7.35;3.88;;;21.10;68.40;;;;;;5033977;28;20035;-64
2021/09/11 05:17:13;;;;;;;6.75;3.85;;;21.00;68.40;;;;;;5033982;28;20102;-64
2021/09/11 05:19:39;;;;;;;6.65;4.03;;;21.00;68.30;;;;;;5033782;28;20030;-63
2021/09/11 05:22:05;;;;;;;6.55;3.60;;;21.00;68.50;;;;;;5033623;28;20037;-63
2021/09/11 05:24:30;;;;;;;6.78;3.92;;;21.00;68.50;;;;;;5033736;28;20033;-63
2021/09/11 05:26:56;;;;;;;7.47;4.03;;;21.00;68.40;;;;;;5033452;28;20477;-63
2021/09/11 05:29:21;;;;;;;7.72;4.30;;;21.10;68.40;;;;;;5033478;28;20083;-63
2021/09/11 05:31:47;;;;;;;7.22;3.75;;;21.10;68.40;;;;;;5033451;28;20029;-63
2021/09/11 05:34:12;;;;;;;6.35;3.65;;;21.00;68.40;;;;;;5033289;28;20028;-63
2021/09/11 05:36:38;;;;;;;5.82;3.72;;;21.00;68.40;;;;;;5033374;28;20032;-64
2021/09/11 05:39:04;;;;;;;7.38;4.70;;;21.00;68.40;;;;;;5033101;28;20128;-63
2021/09/11 05:41:29;;;;;;;6.35;3.95;;;21.00;68.40;;;;;;5033508;28;20030;-64
2021/09/11 05:43:55;;;;;;;6.82;4.20;;;21.00;68.40;;;;;;5033255;28;20030;-63
2021/09/11 05:46:21;;;;;;;7.70;4.10;;;21.00;68.50;;;;;;5033209;28;20029;-63
2021/09/11 05:48:46;;;;;;;6.68;4.07;;;21.00;68.50;;;;;;5033097;28;20033;-63
2021/09/11 05:51:12;;;;;;;6.15;3.50;;;21.00;68.40;;;;;;5033237;28;20090;-63
2021/09/11 05:53:37;;;;;;;6.55;4.07;;;21.00;68.40;;;;;;5033343;28;20117;-63
2021/09/11 05:56:03;;;;;;;6.70;3.92;;;21.00;68.50;;;;;;5033144;28;20091;-63
2021/09/11 05:58:29;;;;;;;6.30;3.78;;;21.00;68.50;;;;;;5033037;28;20030;-63
2021/09/11 06:00:55;;;;;;;8.63;3.92;;;21.00;68.40;;;;;;5033034;28;20112;-64
2021/09/11 06:03:21;;;;;;;6.90;4.20;;;21.00;68.40;;;;;;5032702;28;20473;-63
2021/09/11 06:05:47;;;;;;;8.00;4.10;;;21.00;68.40;;;;;;5048303;28;20057;-63
2021/09/11 06:08:12;;;;;;;6.70;4.10;;;21.00;68.40;;;;;;5032828;28;20095;-63
2021/09/11 06:10:38;;;;;;;6.60;4.13;;;21.00;68.40;;;;;;5032917;28;20485;-63
2021/09/11 06:13:03;;;;;;;7.20;4.00;;;21.00;68.50;;;;;;5032979;28;20017;-64
2021/09/11 06:15:29;;;;;;;7.35;4.05;;;21.00;68.40;;;;;;5033068;28;20489;-64
2021/09/11 06:17:54;;;;;;;6.72;4.05;;;21.00;68.40;;;;;;5032783;28;20033;-65
2021/09/11 06:20:20;;;;;;;6.82;3.80;;;21.00;68.40;;;;;;5033108;28;20458;-67
2021/09/11 06:22:46;;;;;;;7.70;4.63;;;21.00;68.40;;;;;;5032949;28;20057;-64
2021/09/11 06:25:13;;;;;;;7.45;3.97;;;21.00;68.40;;;;;;5032821;28;20095;-63
2021/09/11 06:27:40;;;;;;;6.60;4.05;;;21.00;68.40;;;;;;5032820;28;20439;-63
2021/09/11 06:30:11;;;;;;;6.90;4.10;;;21.00;68.40;;;;;;5032683;28;20075;-63
2021/09/11 06:32:37;;;;;;;6.72;4.25;;;21.00;68.40;;;;;;5032709;28;20442;-64
2021/09/11 06:35:03;;;;;;;6.68;3.95;;;21.00;68.40;;;;;;5032877;28;20148;-64
2021/09/11 06:37:29;;;;;;;6.75;3.90;;;21.00;68.40;;;;;;5032408;28;20033;-63
2021/09/11 06:39:55;;;;;;;7.10;3.90;;;21.00;68.40;;;;;;5032571;28;20504;-63
2021/09/11 06:42:21;;;;;;;5.85;3.70;;;21.00;68.40;;;;;;5032611;28;20026;-63
2021/09/11 06:44:47;;;;;;;7.15;4.00;;;21.00;68.40;;;;;;5036129;28;20492;-63
2021/09/11 06:47:13;;;;;;;6.40;4.03;;;21.00;68.40;;;;;;5036719;28;20034;-63
2021/09/11 06:49:39;;;;;;;6.55;3.88;;;21.00;68.40;;;;;;5036525;28;20032;-64
2021/09/11 06:52:05;;;;;;;7.03;4.13;;;21.00;68.40;;;;;;5036285;28;20064;-63
2021/09/11 06:54:30;;;;;;;6.82;4.07;;;21.00;68.40;;;;;;5035365;28;20104;-63
2021/09/11 06:56:56;;;;;;;7.30;4.32;;;21.00;68.30;;;;;;5036322;28;20026;-63
2021/09/11 06:59:21;;;;;;;6.32;3.75;;;21.00;68.40;;;;;;5036439;28;20096;-63
2021/09/11 07:01:47;;;;;;;5.75;3.50;;;21.00;68.30;;;;;;5036029;28;20036;-63
2021/09/11 07:04:12;;;;;;;5.95;3.70;;;21.00;68.30;;;;;;5036407;28;20052;-63
2021/09/11 07:06:38;;;;;;;7.20;3.97;;;21.00;68.30;;;;;;5036102;28;20041;-63
2021/09/11 07:09:03;;;;;;;5.85;3.55;;;21.00;68.20;;;;;;5036196;28;20108;-63
2021/09/11 07:11:29;;;;;;;6.57;3.88;;;21.10;68.10;;;;;;5036009;28;20053;-63
2021/09/11 07:13:54;;;;;;;6.10;3.65;;;21.00;68.20;;;;;;5034655;28;20074;-63
2021/09/11 07:16:20;;;;;;;6.25;3.33;;;21.00;68.20;;;;;;5035838;28;20025;-64
2021/09/11 07:18:45;;;;;;;7.57;3.80;;;21.10;68.10;;;;;;5035853;28;20079;-64
2021/09/11 07:21:11;;;;;;;7.93;3.97;;;21.10;67.90;;;;;;5051009;28;20520;-63
2021/09/11 07:23:36;;;;;;;6.57;3.50;;;21.10;67.80;;;;;;5035890;28;20385;-64
2021/09/11 07:26:02;;;;;;;5.43;3.40;;;21.10;67.80;;;;;;5035629;28;20489;-63
2021/09/11 07:28:28;;;;;;;6.70;3.63;;;21.10;67.70;;;;;;5035861;28;20084;-63
2021/09/11 07:30:53;;;;;;;5.78;3.53;;;21.10;67.70;;;;;;5035443;28;20065;-63
2021/09/11 07:33:19;;;;;;;6.32;3.70;;;21.10;67.60;;;;;;5035779;28;20096;-63
2021/09/11 07:35:45;;;;;;;6.72;3.70;;;21.10;67.70;;;;;;5035608;28;20029;-63
2021/09/11 07:38:11;;;;;;;6.60;3.72;;;21.10;67.80;;;;;;5035501;28;20102;-63
2021/09/11 07:40:37;;;;;;;6.38;3.65;;;21.10;67.70;;;;;;5035494;28;20117;-63
2021/09/11 07:43:04;;;;;;;6.35;3.78;;;21.10;67.60;;;;;;5035441;28;20061;-63
2021/09/11 07:45:29;;;;;;;6.47;3.60;;;21.10;67.70;;;;;;5050684;28;20030;-63
2021/09/11 07:47:55;;;;;;;5.82;3.63;;;21.10;67.70;;;;;;5035438;28;20381;-64
2021/09/11 07:50:26;;;;;;;6.57;3.80;;;21.10;67.60;;;;;;5035240;28;20033;-65
2021/09/11 07:52:52;;;;;;;5.80;3.20;;;21.10;67.60;;;;;;5035376;28;20036;-63
2021/09/11 07:55:17;;;;;;;7.18;3.50;;;21.20;67.60;;;;;;5049237;28;20375;-63
2021/09/11 07:57:43;;;;;;;5.25;3.28;;;21.20;67.60;;;;;;5033906;28;20037;-64
2021/09/11 08:00:09;;;;;;;5.43;3.35;;;21.10;67.60;;;;;;5035216;28;20039;-64
2021/09/11 08:02:35;;;;;;;7.72;3.75;;;21.10;67.50;;;;;;5035373;28;20053;-64
2021/09/11 08:05:00;;;;;;;7.28;3.88;;;21.10;67.60;;;;;;5034970;28;20496;-64
2021/09/11 08:07:27;;;;;;;6.03;3.30;;;21.20;67.50;;;;;;5035034;28;20029;-64
2021/09/11 08:09:54;;;;;;;7.72;3.50;;;21.20;67.50;;;;;;5034880;28;20079;-64
2021/09/11 08:12:21;;;;;;;5.20;3.13;;;21.20;67.50;;;;;;5034961;28;20037;-64
2021/09/11 08:14:46;;;;;;;5.30;3.22;;;21.20;67.60;;;;;;5035245;28;20079;-65
2021/09/11 08:17:12;;;;;;;6.47;3.78;;;21.20;67.50;;;;;;5034849;28;20040;-64
2021/09/11 08:19:37;;;;;;;5.10;3.22;;;21.20;67.50;;;;;;5034767;28;20025;-63
2021/09/11 08:22:03;;;;;;;6.25;3.67;;;21.20;67.50;;;;;;5034570;28;20029;-63
2021/09/11 08:24:28;;;;;;;6.70;3.78;;;21.20;67.40;;;;;;5034642;28;20094;-63
2021/09/11 08:26:54;;;;;;;5.82;3.60;;;21.20;67.40;;;;;;5034542;28;20457;-65
2021/09/11 08:29:19;;;;;;;6.15;3.40;;;21.20;67.50;;;;;;5034797;28;20030;-64
2021/09/11 08:31:45;;;;;;;5.60;3.42;;;21.20;67.50;;;;;;5034490;28;20104;-64
2021/09/11 08:34:12;;;;;;;6.43;4.10;;;21.20;67.50;;;;;;5034385;28;20033;-64
2021/09/11 08:36:38;;;;;;;6.30;3.47;;;21.20;67.50;;;;;;5034345;28;20500;-64
2021/09/11 08:39:04;;;;;;;5.88;3.15;;;21.20;67.50;;;;;;5034332;28;20042;-63
2021/09/11 08:41:31;;;;;;;6.10;3.55;;;21.20;67.50;;;;;;5034303;28;20026;-64
2021/09/11 08:43:59;;;;;;;5.78;3.38;;;21.20;67.50;;;;;;5034102;28;20056;-63
2021/09/11 08:46:28;;;;;;;5.57;3.35;;;21.30;67.40;;;;;;5034352;28;20596;-63
2021/09/11 08:48:54;;;;;;;7.28;4.03;;;21.20;67.40;;;;;;5034078;28;20026;-63
2021/09/11 08:51:19;;;;;;;5.47;3.13;;;21.30;67.40;;;;;;5033972;28;20048;-63
2021/09/11 08:53:45;;;;;;;5.25;3.00;;;21.30;67.40;;;;;;5034068;28;20373;-63
2021/09/11 08:56:11;;;;;;;6.03;3.53;;;21.30;67.40;;;;;;5034376;28;20025;-64
2021/09/11 08:58:37;;;;;;;5.38;3.10;;;21.30;67.30;;;;;;5033911;28;20025;-63
2021/09/11 09:01:03;;;;;;;5.70;3.33;;;21.30;67.40;;;;;;5033761;28;20056;-63
2021/09/11 09:03:41;;;;;;;6.50;3.75;;;21.20;67.50;;;;;;5034209;28;20021;-64
2021/09/11 09:06:20;;;;;;;6.47;3.42;;;21.20;67.50;;;;;;5033744;28;20041;-64
2021/09/11 09:08:49;;;;;;;6.70;3.65;;;21.30;67.50;;;;;;5033890;28;20021;-65
2021/09/11 09:11:27;;;;;;;6.72;3.85;;;21.30;67.40;;;;;;5032781;28;20094;-64
2021/09/11 09:13:58;;;;;;;5.88;3.35;;;21.20;67.50;;;;;;5033765;28;20030;-64
2021/09/11 09:16:29;;;;;;;6.28;3.30;;;21.20;67.40;;;;;;5033633;28;20025;-63
2021/09/11 09:18:56;;;;;;;6.55;3.40;;;21.30;67.30;;;;;;5033853;28;20108;-63
2021/09/11 09:21:31;;;;;;;6.20;3.58;;;21.30;67.30;;;;;;5033514;28;20052;-65
2021/09/11 09:24:00;;;;;;;6.07;3.42;;;21.30;67.40;;;;;;5033544;28;20369;-64
2021/09/11 09:26:26;;;;;;;6.22;3.65;;;21.40;67.40;;;;;;5033683;28;20033;-65
2021/09/11 09:29:09;;;;;;;5.35;3.25;;;21.30;67.40;;;;;;5033568;28;20049;-64
2021/09/11 09:31:35;;;;;;;7.15;3.38;;;21.40;67.40;;;;;;5033620;28;20064;-64
2021/09/11 09:34:01;;;;;;;7.20;3.55;;;21.40;67.40;;;;;;5033586;28;20022;-65
2021/09/11 09:36:34;;;;;;;6.15;3.40;;;21.40;67.40;;;;;;5033406;28;20087;-64
2021/09/11 09:39:02;;;;;;;6.67;3.43;;;21.40;67.30;;;;;;5033109;28;20108;-63
2021/09/11 09:41:41;;;;;;;5.78;3.38;;;21.40;67.30;;;;;;5033194;28;20025;-64
2021/09/11 09:44:07;;;;;;;5.93;3.65;;;21.40;67.30;;;;;;5033035;28;20030;-64
2021/09/11 09:46:38;;;;;;;5.63;3.05;;;21.40;67.30;;;;;;5033035;28;20354;-63
2021/09/11 09:49:03;;;;;;;5.85;3.13;;;21.50;67.20;;;;;;5033102;28;20062;-63
2021/09/11 09:51:32;;;;;;;6.53;3.47;;;21.50;67.20;;;;;;5033018;28;20460;-64
2021/09/11 09:53:59;;;;;;;7.82;3.45;;;21.50;67.10;;;;;;5033307;28;20037;-64
2021/09/11 09:56:29;;;;;;;4.95;3.13;;;21.50;67.00;;;;;;5033003;28;20030;-64
2021/09/11 09:58:54;;;;;;;5.75;3.33;;;21.50;67.00;;;;;;5033105;28;20017;-64
2021/09/11 10:01:21;;;;;;;5.68;2.92;;;21.50;67.00;;;;;;5033091;28;20033;-64
2021/09/11 10:03:47;;;;;;;6.55;3.83;;;21.50;67.10;;;;;;5032953;28;20025;-64
2021/09/11 10:06:17;;;;;;;5.72;2.90;;;21.50;67.10;;;;;;5032811;28;20025;-63
2021/09/11 10:08:51;;;;;;;6.07;3.13;;;21.50;67.00;;;;;;5032779;28;20022;-64
2021/09/11 10:11:17;;;;;;;6.60;2.88;;;21.50;67.00;;;;;;5048029;28;20087;-64
2021/09/11 10:13:59;;;;;;;4.60;2.92;;;21.50;67.00;;;;;;5032803;28;20021;-64
2021/09/11 10:16:34;;;;;;;6.15;3.28;;;21.50;67.00;;;;;;5047944;28;20080;-64
2021/09/11 10:19:14;;;;;;;6.28;3.28;;;21.50;67.10;;;;;;5031948;28;20045;-64
2021/09/11 10:21:39;;;;;;;5.72;3.03;;;21.50;67.10;;;;;;5032644;28;20079;-64
2021/09/11 10:24:13;;;;;;;5.40;3.22;;;21.50;67.10;;;;;;5032687;28;20022;-64
2021/09/11 10:26:46;;;;;;;5.78;3.45;;;21.50;67.10;;;;;;5032825;28;20096;-63
2021/09/11 10:29:30;;;;;;;6.35;3.35;;;21.50;67.00;;;;;;5047796;28;20358;-64
2021/09/11 10:32:19;;;;;;;5.30;3.05;;;21.50;66.90;;;;;;5032382;28;20037;-63
2021/09/11 10:34:57;;;;;;;5.22;3.05;;;21.50;66.90;;;;;;5028939;28;20103;-63
2021/09/11 10:37:28;;;;;;;5.65;3.25;;;21.50;67.00;;;;;;5032336;28;20022;-64
2021/09/11 10:40:13;;;;;;;5.65;3.38;;;21.50;67.00;;;;;;5032389;28;20034;-64
2021/09/11 10:43:04;;;;;;;5.20;2.70;;;21.60;67.10;;;;;;5032511;28;20128;-63
2021/09/11 10:45:44;;;;;;;5.40;3.10;;;21.60;67.00;;;;;;5032504;28;20112;-64
2021/09/11 10:48:32;;;;;;;5.53;2.80;;;21.60;66.90;;;;;;5032463;28;20040;-64
2021/09/11 10:51:13;;;;;;;5.20;2.75;;;21.60;66.90;;;;;;5032089;28;20022;-63
2021/09/11 10:53:39;;;;;;;5.40;2.90;;;21.60;66.90;;;;;;5032297;28;20105;-63
2021/09/11 10:56:29;;;;;;;5.63;3.30;;;21.60;66.90;;;;;;5032285;28;20478;-64
2021/09/11 10:59:19;;;;;;;5.57;3.05;;;21.60;66.90;;;;;;5032455;28;20026;-63
2021/09/11 11:02:02;;;;;;;5.47;3.10;;;21.60;66.90;;;;;;5047613;28;20018;-64
2021/09/11 11:04:31;;;;;;;5.22;2.80;;;21.60;66.80;;;;;;5032208;28;20034;-64
2021/09/11 11:07:00;;;;;;;4.93;2.92;;;21.60;66.80;;;;;;5032166;28;20493;-63
2021/09/11 11:09:25;;;;;;;5.15;3.13;;;21.70;66.90;;;;;;5032174;28;20025;-64
2021/09/11 11:11:53;;;;;;;5.57;3.03;;;21.60;66.90;;;;;;5047489;28;20037;-64
2021/09/11 11:14:19;;;;;;;5.50;2.75;;;21.60;66.90;;;;;;5032234;28;20032;-64
2021/09/11 11:16:53;;;;;;;6.15;3.20;;;21.60;66.90;;;;;;5047643;28;20029;-64
2021/09/11 11:19:26;;;;;;;;;;;21.60;66.90;;;;;;5031723;28;20119;-64
2021/09/11 11:21:58;;;;;;;6.20;3.03;;;21.60;66.80;;;;;;5030764;28;19905;-64
2021/09/11 11:24:24;;;;;;;5.68;3.20;;;21.60;66.90;;;;;;5032240;28;20026;-63
2021/09/11 11:26:50;;;;;;;5.32;3.10;;;21.70;66.90;;;;;;5032109;28;20025;-63
2021/09/11 11:29:20;;;;;;;6.00;3.42;;;21.60;66.90;;;;;;5032889;28;20076;-63
2021/09/11 11:31:47;;;;;;;5.13;2.92;;;21.60;66.90;;;;;;5035473;28;20030;-64
2021/09/11 11:34:13;;;;;;;5.72;3.17;;;21.60;66.90;;;;;;5051009;28;20043;-63
2021/09/11 11:36:54;;;;;;;5.47;3.30;;;21.60;66.90;;;;;;5035759;28;20041;-64
2021/09/11 11:39:26;;;;;;;4.75;3.00;;;21.60;66.90;;;;;;5035403;28;20045;-64
2021/09/11 11:42:03;;;;;;;5.50;3.20;;;21.60;66.90;;;;;;5035417;28;20021;-63
2021/09/11 11:44:30;;;;;;;5.95;3.03;;;21.60;66.90;;;;;;5035568;28;20026;-64
2021/09/11 11:47:15;;;;;;;5.55;2.78;;;21.60;66.90;;;;;;5035326;28;20071;-64
2021/09/11 11:49:41;;;;;;;5.28;3.03;;;21.60;67.00;;;;;;5050680;28;20021;-64
2021/09/11 11:52:08;;;;;;;5.78;2.95;;;21.60;66.90;;;;;;5035258;28;20052;-64
2021/09/11 11:54:37;;;;;;;5.85;3.00;;;21.60;67.00;;;;;;5035321;28;20028;-64
2021/09/11 11:57:08;;;;;;;4.88;2.72;;;21.60;66.90;;;;;;5035230;28;20109;-64
2021/09/11 11:59:33;;;;;;;5.97;3.10;;;21.60;66.90;;;;;;5035260;28;20157;-64
2021/09/11 12:01:59;;;;;;;4.93;2.63;;;21.60;66.90;;;;;;5035243;28;20112;-64
2021/09/11 12:04:24;;;;;;;5.43;3.13;;;21.60;66.90;;;;;;5035127;28;20029;-64
2021/09/11 12:06:52;;;;;;;5.15;3.13;;;21.60;66.90;;;;;;5050352;28;20099;-64
2021/09/11 12:09:18;;;;;;;5.32;2.90;;;21.70;66.90;;;;;;5050103;28;20056;-64
2021/09/11 12:11:46;;;;;;;5.25;2.88;;;21.70;66.70;;;;;;5034906;28;20385;-65
2021/09/11 12:14:14;;;;;;;5.40;3.05;;;21.70;66.70;;;;;;5034866;28;20144;-64
2021/09/11 12:16:42;;;;;;;5.68;2.95;;;21.90;66.40;;;;;;5035168;28;20276;-64
2021/09/11 12:19:18;;;;;;;5.13;2.92;;;21.90;66.20;;;;;;5034794;28;20025;-64
2021/09/11 12:21:44;;;;;;;5.97;3.03;;;21.90;66.30;;;;;;5035071;28;20081;-65
2021/09/11 12:24:25;;;;;;;7.20;2.58;;;21.90;66.40;;;;;;5034588;28;20519;-64
2021/09/11 12:26:50;;;;;;;5.47;3.05;;;21.90;66.40;;;;;;5049887;28;20037;-64
2021/09/11 12:29:18;;;;;;;5.07;2.80;;;21.90;66.50;;;;;;5049990;28;20091;-64
2021/09/11 12:31:55;;;;;;;5.97;2.95;;;22.00;66.40;;;;;;5034398;28;20477;-64
2021/09/11 12:34:21;;;;;;;5.38;3.15;;;21.90;66.50;;;;;;5034893;28;20028;-64
2021/09/11 12:36:49;;;;;;;5.30;2.67;;;21.90;66.50;;;;;;5034514;28;20056;-64
2021/09/11 12:39:26;;;;;;;6.47;3.15;;;21.90;66.50;;;;;;5034059;28;20042;-64
2021/09/11 12:41:53;;;;;;;5.15;2.78;;;21.90;66.60;;;;;;5033602;28;20025;-64
2021/09/11 12:44:20;;;;;;;5.22;3.00;;;21.90;66.60;;;;;;5034270;28;20029;-64
2021/09/11 12:46:51;;;;;;;4.68;2.63;;;21.90;66.60;;;;;;5034411;28;20021;-64
2021/09/11 12:49:18;;;;;;;4.80;2.70;;;21.90;66.70;;;;;;5034586;28;20021;-64